sensor_id;sensor_type;location;lat;lon;timestamp;P1;durP1;ratioP1;P2;durP2;ratioP2
11488;SDS011;5801;50.804;12.638;2024-01-06T00:01:43;6.93;;;2.92;;
11488;SDS011;5801;50.804;12.638;2024-01-06T00:04:09;3.05;;;2.00;;
11488;SDS011;5801;50.804;12.638;2024-01-06T00:06:35;3.28;;;2.30;;
11488;SDS011;5801;50.804;12.638;2024-01-06T00:09:01;20.48;;;13.85;;
11488;SDS011;5801;50.804;12.638;2024-01-06T00:11:27;7.28;;;4.72;;
11488;SDS011;5801;50.804;12.638;2024-01-06T00:13:53;2.75;;;2.08;;
11488;SDS011;5801;50.804;12.638;2024-01-06T00:16:19;11.13;;;6.50;;
11488;SDS011;5801;50.804;12.638;2024-01-06T00:18:46;7.38;;;3.40;;
11488;SDS011;5801;50.804;12.638;2024-01-06T00:21:12;6.22;;;2.47;;
11488;SDS011;5801;50.804;12.638;2024-01-06T00:23:39;8.35;;;3.28;;
11488;SDS011;5801;50.804;12.638;2024-01-06T00:26:05;3.33;;;3.03;;
11488;SDS011;5801;50.804;12.638;2024-01-06T00:28:32;7.55;;;4.32;;
11488;SDS011;5801;50.804;12.638;2024-01-06T00:30:58;6.88;;;4.72;;
11488;SDS011;5801;50.804;12.638;2024-01-06T00:33:23;4.82;;;2.78;;
11488;SDS011;5801;50.804;12.638;2024-01-06T00:35:49;4.97;;;3.38;;
11488;SDS011;5801;50.804;12.638;2024-01-06T00:38:15;9.48;;;4.43;;
11488;SDS011;5801;50.804;12.638;2024-01-06T00:40:42;19.63;;;13.57;;
11488;SDS011;5801;50.804;12.638;2024-01-06T00:43:08;5.22;;;3.42;;
11488;SDS011;5801;50.804;12.638;2024-01-06T00:45:33;3.67;;;2.53;;
11488;SDS011;5801;50.804;12.638;2024-01-06T00:47:59;3.00;;;1.90;;
11488;SDS011;5801;50.804;12.638;2024-01-06T00:50:25;4.10;;;3.40;;
11488;SDS011;5801;50.804;12.638;2024-01-06T00:52:51;3.70;;;2.80;;
11488;SDS011;5801;50.804;12.638;2024-01-06T00:55:20;4.80;;;2.67;;
11488;SDS011;5801;50.804;12.638;2024-01-06T00:57:47;4.35;;;3.33;;
11488;SDS011;5801;50.804;12.638;2024-01-06T01:00:13;5.07;;;3.00;;
11488;SDS011;5801;50.804;12.638;2024-01-06T01:02:39;6.78;;;4.10;;
11488;SDS011;5801;50.804;12.638;2024-01-06T01:05:05;7.18;;;4.07;;
11488;SDS011;5801;50.804;12.638;2024-01-06T01:07:34;2.90;;;2.33;;
11488;SDS011;5801;50.804;12.638;2024-01-06T01:10:00;3.85;;;2.55;;
11488;SDS011;5801;50.804;12.638;2024-01-06T01:12:26;5.78;;;3.38;;
11488;SDS011;5801;50.804;12.638;2024-01-06T01:14:52;4.00;;;3.15;;
11488;SDS011;5801;50.804;12.638;2024-01-06T01:17:18;4.18;;;2.45;;
11488;SDS011;5801;50.804;12.638;2024-01-06T01:19:45;3.92;;;2.40;;
11488;SDS011;5801;50.804;12.638;2024-01-06T01:22:11;3.13;;;2.38;;
11488;SDS011;5801;50.804;12.638;2024-01-06T01:24:37;5.97;;;3.03;;
11488;SDS011;5801;50.804;12.638;2024-01-06T01:27:03;4.90;;;2.65;;
11488;SDS011;5801;50.804;12.638;2024-01-06T01:29:29;2.83;;;2.13;;
11488;SDS011;5801;50.804;12.638;2024-01-06T01:31:55;2.40;;;2.00;;
11488;SDS011;5801;50.804;12.638;2024-01-06T01:34:21;3.50;;;2.10;;
11488;SDS011;5801;50.804;12.638;2024-01-06T01:36:47;3.03;;;2.08;;
11488;SDS011;5801;50.804;12.638;2024-01-06T01:39:13;5.43;;;2.38;;
11488;SDS011;5801;50.804;12.638;2024-01-06T01:41:40;5.65;;;2.50;;
11488;SDS011;5801;50.804;12.638;2024-01-06T01:44:06;3.05;;;2.28;;
11488;SDS011;5801;50.804;12.638;2024-01-06T01:46:32;2.50;;;1.83;;
11488;SDS011;5801;50.804;12.638;2024-01-06T01:49:00;5.38;;;2.20;;
11488;SDS011;5801;50.804;12.638;2024-01-06T01:51:27;3.28;;;1.77;;
11488;SDS011;5801;50.804;12.638;2024-01-06T01:53:57;3.20;;;2.28;;
11488;SDS011;5801;50.804;12.638;2024-01-06T01:56:25;4.63;;;2.40;;
11488;SDS011;5801;50.804;12.638;2024-01-06T01:58:51;2.40;;;2.08;;
11488;SDS011;5801;50.804;12.638;2024-01-06T02:01:18;2.97;;;2.38;;
11488;SDS011;5801;50.804;12.638;2024-01-06T02:03:44;4.15;;;2.13;;
11488;SDS011;5801;50.804;12.638;2024-01-06T02:06:10;3.97;;;1.98;;
11488;SDS011;5801;50.804;12.638;2024-01-06T02:08:37;7.97;;;1.95;;
11488;SDS011;5801;50.804;12.638;2024-01-06T02:11:03;3.90;;;2.53;;
11488;SDS011;5801;50.804;12.638;2024-01-06T02:13:36;3.97;;;2.58;;
11488;SDS011;5801;50.804;12.638;2024-01-06T02:16:03;2.90;;;1.85;;
11488;SDS011;5801;50.804;12.638;2024-01-06T02:18:29;1.95;;;1.83;;
11488;SDS011;5801;50.804;12.638;2024-01-06T02:20:59;2.72;;;2.10;;
11488;SDS011;5801;50.804;12.638;2024-01-06T02:23:26;2.42;;;2.22;;
11488;SDS011;5801;50.804;12.638;2024-01-06T02:25:53;5.97;;;2.42;;
11488;SDS011;5801;50.804;12.638;2024-01-06T02:28:19;2.53;;;2.25;;
11488;SDS011;5801;50.804;12.638;2024-01-06T02:30:44;5.10;;;2.15;;
11488;SDS011;5801;50.804;12.638;2024-01-06T02:33:10;4.53;;;1.98;;
11488;SDS011;5801;50.804;12.638;2024-01-06T02:35:37;7.75;;;2.13;;
11488;SDS011;5801;50.804;12.638;2024-01-06T02:38:04;4.00;;;2.08;;
11488;SDS011;5801;50.804;12.638;2024-01-06T02:40:31;4.20;;;2.33;;
11488;SDS011;5801;50.804;12.638;2024-01-06T02:42:57;3.53;;;2.35;;
11488;SDS011;5801;50.804;12.638;2024-01-06T02:45:23;1.67;;;1.58;;
11488;SDS011;5801;50.804;12.638;2024-01-06T02:47:50;2.35;;;1.90;;
11488;SDS011;5801;50.804;12.638;2024-01-06T02:50:15;4.15;;;2.58;;
11488;SDS011;5801;50.804;12.638;2024-01-06T02:52:41;2.83;;;2.30;;
11488;SDS011;5801;50.804;12.638;2024-01-06T02:55:08;4.22;;;2.45;;
11488;SDS011;5801;50.804;12.638;2024-01-06T02:57:34;2.17;;;1.88;;
11488;SDS011;5801;50.804;12.638;2024-01-06T03:00:00;2.88;;;2.20;;
11488;SDS011;5801;50.804;12.638;2024-01-06T03:02:28;3.05;;;2.28;;
11488;SDS011;5801;50.804;12.638;2024-01-06T03:04:54;2.38;;;1.83;;
11488;SDS011;5801;50.804;12.638;2024-01-06T03:07:21;4.57;;;2.20;;
11488;SDS011;5801;50.804;12.638;2024-01-06T03:09:47;2.35;;;2.00;;
11488;SDS011;5801;50.804;12.638;2024-01-06T03:12:13;5.70;;;2.25;;
11488;SDS011;5801;50.804;12.638;2024-01-06T03:14:39;2.15;;;1.95;;
11488;SDS011;5801;50.804;12.638;2024-01-06T03:17:05;4.60;;;2.15;;
11488;SDS011;5801;50.804;12.638;2024-01-06T03:19:31;5.63;;;2.42;;
11488;SDS011;5801;50.804;12.638;2024-01-06T03:21:57;3.58;;;2.10;;
11488;SDS011;5801;50.804;12.638;2024-01-06T03:24:23;2.40;;;2.20;;
11488;SDS011;5801;50.804;12.638;2024-01-06T03:26:50;3.40;;;2.50;;
11488;SDS011;5801;50.804;12.638;2024-01-06T03:29:16;4.03;;;2.95;;
11488;SDS011;5801;50.804;12.638;2024-01-06T03:31:42;7.13;;;2.00;;
11488;SDS011;5801;50.804;12.638;2024-01-06T03:34:09;3.55;;;2.08;;
11488;SDS011;5801;50.804;12.638;2024-01-06T03:36:38;7.68;;;2.55;;
11488;SDS011;5801;50.804;12.638;2024-01-06T03:39:04;5.72;;;2.22;;
11488;SDS011;5801;50.804;12.638;2024-01-06T03:41:31;2.33;;;2.00;;
11488;SDS011;5801;50.804;12.638;2024-01-06T03:43:57;4.03;;;2.38;;
11488;SDS011;5801;50.804;12.638;2024-01-06T03:46:23;5.70;;;1.90;;
11488;SDS011;5801;50.804;12.638;2024-01-06T03:48:49;4.30;;;2.35;;
11488;SDS011;5801;50.804;12.638;2024-01-06T03:51:15;7.20;;;2.60;;
11488;SDS011;5801;50.804;12.638;2024-01-06T03:53:42;8.55;;;1.95;;
11488;SDS011;5801;50.804;12.638;2024-01-06T03:56:08;7.43;;;3.00;;
11488;SDS011;5801;50.804;12.638;2024-01-06T03:58:34;4.82;;;2.13;;
11488;SDS011;5801;50.804;12.638;2024-01-06T04:01:00;2.20;;;1.77;;
11488;SDS011;5801;50.804;12.638;2024-01-06T04:03:26;2.33;;;1.92;;
11488;SDS011;5801;50.804;12.638;2024-01-06T04:05:52;3.55;;;2.00;;
11488;SDS011;5801;50.804;12.638;2024-01-06T04:08:18;3.15;;;2.28;;
11488;SDS011;5801;50.804;12.638;2024-01-06T04:10:44;2.80;;;2.55;;
11488;SDS011;5801;50.804;12.638;2024-01-06T04:13:10;3.65;;;2.55;;
11488;SDS011;5801;50.804;12.638;2024-01-06T04:15:36;3.15;;;2.08;;
11488;SDS011;5801;50.804;12.638;2024-01-06T04:18:03;3.63;;;2.95;;
11488;SDS011;5801;50.804;12.638;2024-01-06T04:20:30;3.92;;;2.17;;
11488;SDS011;5801;50.804;12.638;2024-01-06T04:22:56;4.13;;;3.33;;
11488;SDS011;5801;50.804;12.638;2024-01-06T04:25:22;4.05;;;2.47;;
11488;SDS011;5801;50.804;12.638;2024-01-06T04:27:48;3.05;;;2.40;;
11488;SDS011;5801;50.804;12.638;2024-01-06T04:30:14;4.78;;;2.30;;
11488;SDS011;5801;50.804;12.638;2024-01-06T04:32:41;4.85;;;2.28;;
11488;SDS011;5801;50.804;12.638;2024-01-06T04:35:07;5.55;;;3.17;;
11488;SDS011;5801;50.804;12.638;2024-01-06T04:37:33;3.05;;;2.15;;
11488;SDS011;5801;50.804;12.638;2024-01-06T04:39:59;3.30;;;2.40;;
11488;SDS011;5801;50.804;12.638;2024-01-06T04:42:25;3.55;;;2.75;;
11488;SDS011;5801;50.804;12.638;2024-01-06T04:44:51;3.55;;;3.10;;
11488;SDS011;5801;50.804;12.638;2024-01-06T04:47:18;4.65;;;3.63;;
11488;SDS011;5801;50.804;12.638;2024-01-06T04:49:44;5.00;;;3.28;;
11488;SDS011;5801;50.804;12.638;2024-01-06T04:52:10;5.82;;;2.20;;
11488;SDS011;5801;50.804;12.638;2024-01-06T04:54:36;3.72;;;2.45;;
11488;SDS011;5801;50.804;12.638;2024-01-06T04:57:02;3.13;;;2.75;;
11488;SDS011;5801;50.804;12.638;2024-01-06T04:59:29;3.30;;;2.65;;
11488;SDS011;5801;50.804;12.638;2024-01-06T05:01:56;2.67;;;2.47;;
11488;SDS011;5801;50.804;12.638;2024-01-06T05:04:23;5.93;;;2.25;;
11488;SDS011;5801;50.804;12.638;2024-01-06T05:06:50;2.40;;;2.20;;
11488;SDS011;5801;50.804;12.638;2024-01-06T05:09:16;3.17;;;2.42;;
11488;SDS011;5801;50.804;12.638;2024-01-06T05:11:45;5.10;;;3.05;;
11488;SDS011;5801;50.804;12.638;2024-01-06T05:14:11;5.25;;;2.90;;
11488;SDS011;5801;50.804;12.638;2024-01-06T05:16:37;2.88;;;2.28;;
11488;SDS011;5801;50.804;12.638;2024-01-06T05:19:03;4.85;;;2.90;;
11488;SDS011;5801;50.804;12.638;2024-01-06T05:21:29;3.25;;;2.95;;
11488;SDS011;5801;50.804;12.638;2024-01-06T05:23:55;3.80;;;2.78;;
11488;SDS011;5801;50.804;12.638;2024-01-06T05:26:21;4.35;;;2.78;;
11488;SDS011;5801;50.804;12.638;2024-01-06T05:28:47;5.65;;;3.10;;
11488;SDS011;5801;50.804;12.638;2024-01-06T05:31:13;4.35;;;2.80;;
11488;SDS011;5801;50.804;12.638;2024-01-06T05:33:39;6.25;;;2.15;;
11488;SDS011;5801;50.804;12.638;2024-01-06T05:36:05;5.25;;;2.90;;
11488;SDS011;5801;50.804;12.638;2024-01-06T05:38:31;5.97;;;2.58;;
11488;SDS011;5801;50.804;12.638;2024-01-06T05:40:57;4.38;;;2.40;;
11488;SDS011;5801;50.804;12.638;2024-01-06T05:43:23;3.33;;;2.70;;
11488;SDS011;5801;50.804;12.638;2024-01-06T05:45:49;4.93;;;2.53;;
11488;SDS011;5801;50.804;12.638;2024-01-06T05:48:16;6.85;;;3.97;;
11488;SDS011;5801;50.804;12.638;2024-01-06T05:50:42;183.45;;;70.28;;
11488;SDS011;5801;50.804;12.638;2024-01-06T05:53:08;148.95;;;65.72;;
11488;SDS011;5801;50.804;12.638;2024-01-06T05:55:34;59.15;;;29.85;;
11488;SDS011;5801;50.804;12.638;2024-01-06T05:58:00;20.15;;;9.05;;
11488;SDS011;5801;50.804;12.638;2024-01-06T06:00:26;8.07;;;5.38;;
11488;SDS011;5801;50.804;12.638;2024-01-06T06:02:51;9.00;;;4.30;;
11488;SDS011;5801;50.804;12.638;2024-01-06T06:05:17;7.82;;;3.45;;
11488;SDS011;5801;50.804;12.638;2024-01-06T06:07:43;9.88;;;5.03;;
11488;SDS011;5801;50.804;12.638;2024-01-06T06:10:10;4.07;;;3.00;;
11488;SDS011;5801;50.804;12.638;2024-01-06T06:12:36;4.70;;;3.00;;
11488;SDS011;5801;50.804;12.638;2024-01-06T06:15:03;6.30;;;3.10;;
11488;SDS011;5801;50.804;12.638;2024-01-06T06:17:30;5.75;;;3.30;;
11488;SDS011;5801;50.804;12.638;2024-01-06T06:19:56;6.28;;;3.47;;
11488;SDS011;5801;50.804;12.638;2024-01-06T06:22:23;3.60;;;3.30;;
11488;SDS011;5801;50.804;12.638;2024-01-06T06:24:51;9.60;;;2.88;;
11488;SDS011;5801;50.804;12.638;2024-01-06T06:27:17;4.65;;;3.40;;
11488;SDS011;5801;50.804;12.638;2024-01-06T06:29:43;5.22;;;2.97;;
11488;SDS011;5801;50.804;12.638;2024-01-06T06:32:09;5.93;;;3.13;;
11488;SDS011;5801;50.804;12.638;2024-01-06T06:34:35;4.45;;;3.53;;
11488;SDS011;5801;50.804;12.638;2024-01-06T06:37:01;3.85;;;3.10;;
11488;SDS011;5801;50.804;12.638;2024-01-06T06:39:26;4.63;;;3.40;;
11488;SDS011;5801;50.804;12.638;2024-01-06T06:41:53;4.72;;;2.67;;
11488;SDS011;5801;50.804;12.638;2024-01-06T06:44:19;7.00;;;3.10;;
11488;SDS011;5801;50.804;12.638;2024-01-06T06:46:45;3.72;;;3.10;;
11488;SDS011;5801;50.804;12.638;2024-01-06T06:49:11;4.30;;;3.83;;
11488;SDS011;5801;50.804;12.638;2024-01-06T06:51:37;9.52;;;3.72;;
11488;SDS011;5801;50.804;12.638;2024-01-06T06:54:11;13.48;;;5.28;;
11488;SDS011;5801;50.804;12.638;2024-01-06T06:56:37;14.93;;;6.72;;
11488;SDS011;5801;50.804;12.638;2024-01-06T06:59:03;25.52;;;8.23;;
11488;SDS011;5801;50.804;12.638;2024-01-06T07:01:30;28.58;;;10.85;;
11488;SDS011;5801;50.804;12.638;2024-01-06T07:03:56;26.02;;;9.93;;
11488;SDS011;5801;50.804;12.638;2024-01-06T07:06:22;29.60;;;11.00;;
11488;SDS011;5801;50.804;12.638;2024-01-06T07:08:48;18.33;;;9.63;;
11488;SDS011;5801;50.804;12.638;2024-01-06T07:11:14;12.73;;;7.13;;
11488;SDS011;5801;50.804;12.638;2024-01-06T07:13:43;18.15;;;5.15;;
11488;SDS011;5801;50.804;12.638;2024-01-06T07:16:09;11.93;;;7.20;;
11488;SDS011;5801;50.804;12.638;2024-01-06T07:18:34;16.67;;;7.88;;
11488;SDS011;5801;50.804;12.638;2024-01-06T07:21:01;9.63;;;6.93;;
11488;SDS011;5801;50.804;12.638;2024-01-06T07:23:27;16.20;;;8.88;;
11488;SDS011;5801;50.804;12.638;2024-01-06T07:25:55;18.85;;;9.98;;
11488;SDS011;5801;50.804;12.638;2024-01-06T07:28:20;18.77;;;9.85;;
11488;SDS011;5801;50.804;12.638;2024-01-06T07:30:46;17.05;;;8.50;;
11488;SDS011;5801;50.804;12.638;2024-01-06T07:33:12;8.25;;;5.05;;
11488;SDS011;5801;50.804;12.638;2024-01-06T07:35:38;10.13;;;4.68;;
11488;SDS011;5801;50.804;12.638;2024-01-06T07:38:08;17.13;;;6.40;;
11488;SDS011;5801;50.804;12.638;2024-01-06T07:40:35;14.45;;;6.18;;
11488;SDS011;5801;50.804;12.638;2024-01-06T07:43:01;29.33;;;9.13;;
11488;SDS011;5801;50.804;12.638;2024-01-06T07:45:27;25.70;;;9.02;;
11488;SDS011;5801;50.804;12.638;2024-01-06T07:47:53;32.13;;;9.13;;
11488;SDS011;5801;50.804;12.638;2024-01-06T07:50:18;21.35;;;9.90;;
11488;SDS011;5801;50.804;12.638;2024-01-06T07:52:44;35.78;;;9.60;;
11488;SDS011;5801;50.804;12.638;2024-01-06T07:55:11;17.83;;;7.07;;
11488;SDS011;5801;50.804;12.638;2024-01-06T07:57:36;19.60;;;9.45;;
11488;SDS011;5801;50.804;12.638;2024-01-06T08:00:02;22.70;;;9.70;;
11488;SDS011;5801;50.804;12.638;2024-01-06T08:02:29;19.73;;;7.80;;
11488;SDS011;5801;50.804;12.638;2024-01-06T08:04:55;18.80;;;7.35;;
11488;SDS011;5801;50.804;12.638;2024-01-06T08:07:21;16.20;;;6.53;;
11488;SDS011;5801;50.804;12.638;2024-01-06T08:09:47;20.30;;;6.20;;
11488;SDS011;5801;50.804;12.638;2024-01-06T08:12:14;11.07;;;5.18;;
11488;SDS011;5801;50.804;12.638;2024-01-06T08:14:40;20.27;;;6.38;;
11488;SDS011;5801;50.804;12.638;2024-01-06T08:17:06;12.80;;;7.00;;
11488;SDS011;5801;50.804;12.638;2024-01-06T08:19:32;14.88;;;7.72;;
11488;SDS011;5801;50.804;12.638;2024-01-06T08:21:58;22.98;;;10.90;;
11488;SDS011;5801;50.804;12.638;2024-01-06T08:24:24;26.15;;;12.27;;
11488;SDS011;5801;50.804;12.638;2024-01-06T08:26:50;25.70;;;12.05;;
11488;SDS011;5801;50.804;12.638;2024-01-06T08:29:16;31.75;;;12.07;;
11488;SDS011;5801;50.804;12.638;2024-01-06T08:31:44;24.40;;;11.48;;
11488;SDS011;5801;50.804;12.638;2024-01-06T08:34:10;29.08;;;10.95;;
11488;SDS011;5801;50.804;12.638;2024-01-06T08:36:36;27.92;;;12.13;;
11488;SDS011;5801;50.804;12.638;2024-01-06T08:39:02;38.28;;;14.75;;
11488;SDS011;5801;50.804;12.638;2024-01-06T08:41:28;36.35;;;13.45;;
11488;SDS011;5801;50.804;12.638;2024-01-06T08:43:54;22.30;;;10.32;;
11488;SDS011;5801;50.804;12.638;2024-01-06T08:46:20;24.15;;;9.10;;
11488;SDS011;5801;50.804;12.638;2024-01-06T08:48:47;27.08;;;10.75;;
11488;SDS011;5801;50.804;12.638;2024-01-06T08:51:13;25.10;;;9.40;;
11488;SDS011;5801;50.804;12.638;2024-01-06T08:53:39;21.33;;;10.32;;
11488;SDS011;5801;50.804;12.638;2024-01-06T08:56:05;17.85;;;9.40;;
11488;SDS011;5801;50.804;12.638;2024-01-06T08:58:31;22.08;;;10.43;;
11488;SDS011;5801;50.804;12.638;2024-01-06T09:00:57;16.73;;;7.15;;
11488;SDS011;5801;50.804;12.638;2024-01-06T09:03:24;20.50;;;7.72;;
11488;SDS011;5801;50.804;12.638;2024-01-06T09:05:55;10.13;;;7.38;;
11488;SDS011;5801;50.804;12.638;2024-01-06T09:08:22;20.25;;;7.22;;
11488;SDS011;5801;50.804;12.638;2024-01-06T09:10:49;14.18;;;7.35;;
11488;SDS011;5801;50.804;12.638;2024-01-06T09:13:16;19.70;;;8.80;;
11488;SDS011;5801;50.804;12.638;2024-01-06T09:15:43;19.38;;;8.93;;
11488;SDS011;5801;50.804;12.638;2024-01-06T09:18:09;21.02;;;9.13;;
11488;SDS011;5801;50.804;12.638;2024-01-06T09:20:37;23.38;;;9.95;;
11488;SDS011;5801;50.804;12.638;2024-01-06T09:23:03;28.35;;;11.18;;
11488;SDS011;5801;50.804;12.638;2024-01-06T09:25:29;25.55;;;12.75;;
11488;SDS011;5801;50.804;12.638;2024-01-06T09:27:55;28.75;;;13.25;;
11488;SDS011;5801;50.804;12.638;2024-01-06T09:30:21;20.98;;;10.60;;
11488;SDS011;5801;50.804;12.638;2024-01-06T09:32:47;25.60;;;10.77;;
11488;SDS011;5801;50.804;12.638;2024-01-06T09:35:13;19.42;;;9.68;;
11488;SDS011;5801;50.804;12.638;2024-01-06T09:37:39;24.75;;;12.10;;
11488;SDS011;5801;50.804;12.638;2024-01-06T09:40:06;15.43;;;9.63;;
11488;SDS011;5801;50.804;12.638;2024-01-06T09:42:37;23.48;;;11.20;;
11488;SDS011;5801;50.804;12.638;2024-01-06T09:45:03;22.88;;;10.65;;
11488;SDS011;5801;50.804;12.638;2024-01-06T09:47:29;26.67;;;11.88;;
11488;SDS011;5801;50.804;12.638;2024-01-06T09:50:00;16.63;;;8.82;;
11488;SDS011;5801;50.804;12.638;2024-01-06T09:52:29;42.63;;;17.88;;
11488;SDS011;5801;50.804;12.638;2024-01-06T09:54:58;36.58;;;15.52;;
11488;SDS011;5801;50.804;12.638;2024-01-06T09:57:25;17.17;;;8.57;;
11488;SDS011;5801;50.804;12.638;2024-01-06T09:59:52;16.45;;;9.27;;
11488;SDS011;5801;50.804;12.638;2024-01-06T10:02:18;21.45;;;9.30;;
11488;SDS011;5801;50.804;12.638;2024-01-06T10:04:47;41.17;;;19.20;;
11488;SDS011;5801;50.804;12.638;2024-01-06T10:07:13;32.45;;;14.70;;
11488;SDS011;5801;50.804;12.638;2024-01-06T10:09:41;25.08;;;12.18;;
11488;SDS011;5801;50.804;12.638;2024-01-06T10:12:07;25.58;;;13.27;;
11488;SDS011;5801;50.804;12.638;2024-01-06T10:14:34;27.77;;;11.65;;
11488;SDS011;5801;50.804;12.638;2024-01-06T10:17:00;18.27;;;8.93;;
11488;SDS011;5801;50.804;12.638;2024-01-06T10:19:26;18.65;;;10.45;;
11488;SDS011;5801;50.804;12.638;2024-01-06T10:21:52;16.33;;;9.23;;
11488;SDS011;5801;50.804;12.638;2024-01-06T10:24:19;18.52;;;10.73;;
11488;SDS011;5801;50.804;12.638;2024-01-06T10:26:45;16.88;;;8.60;;
11488;SDS011;5801;50.804;12.638;2024-01-06T10:29:12;18.13;;;8.57;;
11488;SDS011;5801;50.804;12.638;2024-01-06T10:31:38;18.98;;;9.25;;
11488;SDS011;5801;50.804;12.638;2024-01-06T10:34:05;23.02;;;9.30;;
11488;SDS011;5801;50.804;12.638;2024-01-06T10:36:31;21.27;;;9.20;;
11488;SDS011;5801;50.804;12.638;2024-01-06T10:38:57;15.80;;;7.60;;
11488;SDS011;5801;50.804;12.638;2024-01-06T10:41:23;10.45;;;7.15;;
11488;SDS011;5801;50.804;12.638;2024-01-06T10:43:50;12.90;;;7.47;;
11488;SDS011;5801;50.804;12.638;2024-01-06T10:46:18;9.82;;;5.75;;
11488;SDS011;5801;50.804;12.638;2024-01-06T10:48:44;7.45;;;4.80;;
11488;SDS011;5801;50.804;12.638;2024-01-06T10:51:12;9.85;;;5.90;;
11488;SDS011;5801;50.804;12.638;2024-01-06T10:53:40;9.52;;;5.75;;
11488;SDS011;5801;50.804;12.638;2024-01-06T10:56:06;10.88;;;5.93;;
11488;SDS011;5801;50.804;12.638;2024-01-06T10:58:34;12.38;;;7.90;;
11488;SDS011;5801;50.804;12.638;2024-01-06T11:01:07;10.68;;;7.55;;
11488;SDS011;5801;50.804;12.638;2024-01-06T11:03:33;8.52;;;4.93;;
11488;SDS011;5801;50.804;12.638;2024-01-06T11:06:03;10.38;;;4.70;;
11488;SDS011;5801;50.804;12.638;2024-01-06T11:08:36;6.05;;;4.07;;
11488;SDS011;5801;50.804;12.638;2024-01-06T11:11:31;8.02;;;4.18;;
11488;SDS011;5801;50.804;12.638;2024-01-06T11:16:45;7.20;;;4.85;;
11488;SDS011;5801;50.804;12.638;2024-01-06T11:24:47;6.25;;;4.90;;
11488;SDS011;5801;50.804;12.638;2024-01-06T11:27:21;8.18;;;6.40;;
11488;SDS011;5801;50.804;12.638;2024-01-06T11:29:50;6.40;;;4.88;;
11488;SDS011;5801;50.804;12.638;2024-01-06T11:32:20;10.23;;;5.63;;
11488;SDS011;5801;50.804;12.638;2024-01-06T11:35:07;7.88;;;5.43;;
11488;SDS011;5801;50.804;12.638;2024-01-06T11:40:08;10.43;;;5.38;;
11488;SDS011;5801;50.804;12.638;2024-01-06T11:42:41;8.95;;;5.68;;
11488;SDS011;5801;50.804;12.638;2024-01-06T11:45:08;7.43;;;4.70;;
11488;SDS011;5801;50.804;12.638;2024-01-06T11:47:34;8.73;;;4.85;;
11488;SDS011;5801;50.804;12.638;2024-01-06T11:50:01;8.55;;;5.32;;
11488;SDS011;5801;50.804;12.638;2024-01-06T11:52:31;8.10;;;5.00;;
11488;SDS011;5801;50.804;12.638;2024-01-06T11:54:58;5.20;;;3.97;;
11488;SDS011;5801;50.804;12.638;2024-01-06T11:57:27;10.45;;;6.55;;
11488;SDS011;5801;50.804;12.638;2024-01-06T11:59:53;11.90;;;7.90;;
11488;SDS011;5801;50.804;12.638;2024-01-06T12:02:19;9.68;;;6.32;;
11488;SDS011;5801;50.804;12.638;2024-01-06T12:04:50;12.35;;;7.50;;
11488;SDS011;5801;50.804;12.638;2024-01-06T12:07:18;11.75;;;6.10;;
11488;SDS011;5801;50.804;12.638;2024-01-06T12:09:47;10.93;;;6.65;;
11488;SDS011;5801;50.804;12.638;2024-01-06T12:12:16;11.90;;;5.35;;
11488;SDS011;5801;50.804;12.638;2024-01-06T12:14:43;15.27;;;7.45;;
11488;SDS011;5801;50.804;12.638;2024-01-06T12:17:10;56.42;;;24.55;;
11488;SDS011;5801;50.804;12.638;2024-01-06T12:19:38;25.65;;;14.60;;
11488;SDS011;5801;50.804;12.638;2024-01-06T12:22:06;13.55;;;8.43;;
11488;SDS011;5801;50.804;12.638;2024-01-06T12:24:32;9.65;;;5.47;;
11488;SDS011;5801;50.804;12.638;2024-01-06T12:26:58;7.30;;;4.47;;
11488;SDS011;5801;50.804;12.638;2024-01-06T12:29:28;15.63;;;7.32;;
11488;SDS011;5801;50.804;12.638;2024-01-06T12:31:54;12.77;;;5.45;;
11488;SDS011;5801;50.804;12.638;2024-01-06T12:34:20;9.80;;;5.07;;
11488;SDS011;5801;50.804;12.638;2024-01-06T12:36:47;7.07;;;4.28;;
11488;SDS011;5801;50.804;12.638;2024-01-06T12:39:13;13.63;;;4.38;;
11488;SDS011;5801;50.804;12.638;2024-01-06T12:41:42;12.52;;;4.93;;
11488;SDS011;5801;50.804;12.638;2024-01-06T12:44:08;5.57;;;4.13;;
11488;SDS011;5801;50.804;12.638;2024-01-06T12:46:35;9.65;;;4.57;;
11488;SDS011;5801;50.804;12.638;2024-01-06T12:49:01;6.75;;;4.53;;
11488;SDS011;5801;50.804;12.638;2024-01-06T12:51:27;9.50;;;3.40;;
11488;SDS011;5801;50.804;12.638;2024-01-06T12:53:53;9.85;;;4.30;;
11488;SDS011;5801;50.804;12.638;2024-01-06T12:56:19;14.77;;;6.90;;
11488;SDS011;5801;50.804;12.638;2024-01-06T12:58:45;9.52;;;6.05;;
11488;SDS011;5801;50.804;12.638;2024-01-06T13:01:11;10.20;;;5.80;;
11488;SDS011;5801;50.804;12.638;2024-01-06T13:03:37;8.18;;;4.32;;
11488;SDS011;5801;50.804;12.638;2024-01-06T13:06:04;6.45;;;4.10;;
11488;SDS011;5801;50.804;12.638;2024-01-06T13:08:29;8.63;;;4.88;;
11488;SDS011;5801;50.804;12.638;2024-01-06T13:10:55;9.43;;;4.40;;
11488;SDS011;5801;50.804;12.638;2024-01-06T13:13:22;6.90;;;4.35;;
11488;SDS011;5801;50.804;12.638;2024-01-06T13:15:48;7.72;;;4.53;;
11488;SDS011;5801;50.804;12.638;2024-01-06T13:18:14;6.47;;;4.72;;
11488;SDS011;5801;50.804;12.638;2024-01-06T13:20:42;9.32;;;5.35;;
11488;SDS011;5801;50.804;12.638;2024-01-06T13:23:08;7.75;;;4.10;;
11488;SDS011;5801;50.804;12.638;2024-01-06T13:25:36;8.57;;;4.78;;
11488;SDS011;5801;50.804;12.638;2024-01-06T13:28:03;6.97;;;4.70;;
11488;SDS011;5801;50.804;12.638;2024-01-06T13:30:31;11.90;;;5.70;;
11488;SDS011;5801;50.804;12.638;2024-01-06T13:32:57;8.82;;;4.57;;
11488;SDS011;5801;50.804;12.638;2024-01-06T13:35:23;7.60;;;4.95;;
11488;SDS011;5801;50.804;12.638;2024-01-06T13:37:54;8.32;;;4.95;;
11488;SDS011;5801;50.804;12.638;2024-01-06T13:40:23;10.27;;;5.00;;
11488;SDS011;5801;50.804;12.638;2024-01-06T13:42:50;10.70;;;4.93;;
11488;SDS011;5801;50.804;12.638;2024-01-06T13:45:17;7.47;;;5.38;;
11488;SDS011;5801;50.804;12.638;2024-01-06T13:47:43;11.85;;;5.50;;
11488;SDS011;5801;50.804;12.638;2024-01-06T13:50:11;9.32;;;5.60;;
11488;SDS011;5801;50.804;12.638;2024-01-06T13:52:38;9.80;;;5.45;;
11488;SDS011;5801;50.804;12.638;2024-01-06T13:55:04;7.13;;;4.88;;
11488;SDS011;5801;50.804;12.638;2024-01-06T13:57:31;10.68;;;5.03;;
11488;SDS011;5801;50.804;12.638;2024-01-06T13:59:57;8.00;;;4.43;;
11488;SDS011;5801;50.804;12.638;2024-01-06T14:02:23;9.32;;;5.45;;
11488;SDS011;5801;50.804;12.638;2024-01-06T14:04:49;10.55;;;4.90;;
11488;SDS011;5801;50.804;12.638;2024-01-06T14:07:16;10.95;;;5.18;;
11488;SDS011;5801;50.804;12.638;2024-01-06T14:09:45;6.65;;;4.90;;
11488;SDS011;5801;50.804;12.638;2024-01-06T14:12:11;8.98;;;4.90;;
11488;SDS011;5801;50.804;12.638;2024-01-06T14:14:38;7.22;;;4.93;;
11488;SDS011;5801;50.804;12.638;2024-01-06T14:17:06;11.20;;;5.30;;
11488;SDS011;5801;50.804;12.638;2024-01-06T14:19:32;9.63;;;5.22;;
11488;SDS011;5801;50.804;12.638;2024-01-06T14:21:58;10.90;;;5.30;;
11488;SDS011;5801;50.804;12.638;2024-01-06T14:24:24;15.73;;;4.90;;
11488;SDS011;5801;50.804;12.638;2024-01-06T14:26:50;6.88;;;4.43;;
11488;SDS011;5801;50.804;12.638;2024-01-06T14:29:18;5.03;;;4.05;;
11488;SDS011;5801;50.804;12.638;2024-01-06T14:31:44;13.05;;;5.63;;
11488;SDS011;5801;50.804;12.638;2024-01-06T14:34:10;7.68;;;4.50;;
11488;SDS011;5801;50.804;12.638;2024-01-06T14:36:36;7.47;;;4.90;;
11488;SDS011;5801;50.804;12.638;2024-01-06T14:39:02;9.18;;;4.57;;
11488;SDS011;5801;50.804;12.638;2024-01-06T14:41:31;12.90;;;5.50;;
11488;SDS011;5801;50.804;12.638;2024-01-06T14:43:58;11.50;;;5.18;;
11488;SDS011;5801;50.804;12.638;2024-01-06T14:46:24;13.48;;;5.50;;
11488;SDS011;5801;50.804;12.638;2024-01-06T14:48:49;11.20;;;6.13;;